createdAt,value
2023-01-08T00:01:15.653Z,0.59
2023-01-08T00:03:42.114Z,0.57
2023-01-08T00:06:12.480Z,0.49
2023-01-08T00:08:38.983Z,0.44
2023-01-08T00:11:05.588Z,0.42
2023-01-08T00:13:32.065Z,0.38
2023-01-08T00:16:03.082Z,0.34
2023-01-08T00:18:29.739Z,0.34
2023-01-08T00:20:56.126Z,0.33
2023-01-08T00:23:22.483Z,0.31
2023-01-08T00:25:48.828Z,0.29
2023-01-08T00:28:15.234Z,0.29
2023-01-08T00:30:42.289Z,0.25
2023-01-08T00:33:10.021Z,0.29
2023-01-08T00:35:38.972Z,0.30
2023-01-08T00:38:05.802Z,0.30
2023-01-08T00:40:34.516Z,0.26
2023-01-08T00:43:01.429Z,0.25
2023-01-08T00:45:27.856Z,0.29
2023-01-08T00:47:54.333Z,0.29
2023-01-08T00:50:20.943Z,0.27
2023-01-08T00:52:47.371Z,0.25
2023-01-08T00:55:13.699Z,0.23
2023-01-08T00:57:40.567Z,0.11
2023-01-08T01:00:09.856Z,0.13
2023-01-08T01:02:38.748Z,0.17
2023-01-08T01:05:06.261Z,0.16
2023-01-08T01:07:34.290Z,0.24
2023-01-08T01:10:01.032Z,0.25
2023-01-08T01:12:27.512Z,0.21
2023-01-08T01:14:54.081Z,0.24
2023-01-08T01:17:20.359Z,0.27
2023-01-08T01:19:46.721Z,0.25
2023-01-08T01:22:13.023Z,0.30
2023-01-08T01:24:39.568Z,0.30
2023-01-08T01:27:06.051Z,0.35
2023-01-08T01:29:32.525Z,0.30
2023-01-08T01:31:58.995Z,0.29
2023-01-08T01:34:25.369Z,0.31
2023-01-08T01:36:51.843Z,0.31
2023-01-08T01:39:18.192Z,0.34
2023-01-08T01:41:46.118Z,0.33
2023-01-08T01:44:41.761Z,0.34
2023-01-08T01:47:21.050Z,0.42
2023-01-08T01:50:02.978Z,0.38
2023-01-08T01:52:33.079Z,0.31
2023-01-08T01:55:01.027Z,0.25
2023-01-08T01:57:29.772Z,0.23
2023-01-08T01:59:58.334Z,0.23
2023-01-08T02:02:24.876Z,0.22
2023-01-08T02:04:51.586Z,0.29
2023-01-08T02:07:38.568Z,0.28
2023-01-08T02:10:14.377Z,0.28
2023-01-08T02:13:07.591Z,0.39
2023-01-08T02:15:46.823Z,0.40
2023-01-08T02:18:19.586Z,0.40
2023-01-08T02:20:58.858Z,0.45
2023-01-08T02:23:35.282Z,0.51
2023-01-08T02:26:07.505Z,0.45
2023-01-08T02:28:39.999Z,0.54
2023-01-08T02:31:07.586Z,0.43
2023-01-08T02:33:33.975Z,0.52
2023-01-08T02:36:23.904Z,0.42
2023-01-08T02:39:03.221Z,0.45
2023-01-08T02:41:46.977Z,0.47
2023-01-08T02:44:20.506Z,0.49
2023-01-08T02:46:52.135Z,0.50
2023-01-08T02:49:21.386Z,0.46
2023-01-08T02:51:54.455Z,0.51
2023-01-08T02:54:27.404Z,0.47
2023-01-08T02:57:01.011Z,0.56
2023-01-08T02:59:31.458Z,0.56
2023-01-08T03:01:58.624Z,0.55
2023-01-08T03:04:26.262Z,0.59
2023-01-08T03:06:52.860Z,0.57
2023-01-08T03:09:19.578Z,0.55
2023-01-08T03:11:57.643Z,0.57
2023-01-08T03:14:27.481Z,0.53
2023-01-08T03:17:03.164Z,0.58
2023-01-08T03:19:42.785Z,0.56
2023-01-08T03:22:13.255Z,0.64
2023-01-08T03:24:49.704Z,0.66
2023-01-08T03:27:19.888Z,0.71
2023-01-08T03:29:49.716Z,0.69
2023-01-08T03:32:18.794Z,0.62
2023-01-08T03:34:48.545Z,0.69
2023-01-08T03:37:18.050Z,0.71
2023-01-08T03:39:52.432Z,0.74
2023-01-08T03:42:20.265Z,0.83
2023-01-08T03:44:47.171Z,0.78
2023-01-08T03:47:14.814Z,0.91
2023-01-08T03:49:44.586Z,0.90
2023-01-08T03:52:23.198Z,0.97
2023-01-08T03:54:49.624Z,1.02
2023-01-08T03:57:15.990Z,1.01
2023-01-08T03:59:42.360Z,1.00
2023-01-08T04:02:08.956Z,0.99
2023-01-08T04:04:35.789Z,0.98
2023-01-08T04:07:02.222Z,0.98
2023-01-08T04:09:28.892Z,0.98
2023-01-08T04:11:55.347Z,0.97
2023-01-08T04:14:21.772Z,0.97
2023-01-08T04:16:48.090Z,0.96
2023-01-08T04:19:15.139Z,1.02
2023-01-08T04:21:41.521Z,1.03
2023-01-08T04:24:08.023Z,0.94
2023-01-08T04:26:34.517Z,0.96
2023-01-08T04:29:03.280Z,0.96
2023-01-08T04:31:30.220Z,0.99
2023-01-08T04:33:56.648Z,1.00
2023-01-08T04:36:22.993Z,1.02
2023-01-08T04:38:49.528Z,0.99
2023-01-08T04:41:15.946Z,1.00
2023-01-08T04:43:42.320Z,1.02
2023-01-08T04:46:08.744Z,0.98
2023-01-08T04:48:35.660Z,0.99
2023-01-08T04:51:03.727Z,0.94
2023-01-08T04:53:31.279Z,0.92
2023-01-08T04:56:03.333Z,1.03
2023-01-08T04:58:29.852Z,1.03
2023-01-08T05:00:56.543Z,1.11
2023-01-08T05:03:23.064Z,1.06
2023-01-08T05:05:50.026Z,1.02
2023-01-08T05:08:16.435Z,1.11
2023-01-08T05:10:42.921Z,1.19
2023-01-08T05:13:09.275Z,1.27
2023-01-08T05:15:35.649Z,1.26
2023-01-08T05:18:05.634Z,1.28
2023-01-08T05:20:32.871Z,1.32
2023-01-08T05:22:59.246Z,1.37
2023-01-08T05:25:25.798Z,1.48
2023-01-08T05:27:52.818Z,1.51
2023-01-08T05:30:19.288Z,1.54
2023-01-08T05:32:45.759Z,1.60
2023-01-08T05:35:12.326Z,1.63
2023-01-08T05:37:38.750Z,1.68
2023-01-08T05:40:06.080Z,1.67
2023-01-08T05:42:35.287Z,1.56
2023-01-08T05:45:03.993Z,1.58
2023-01-08T05:47:31.614Z,1.60
2023-01-08T05:49:58.052Z,1.63
2023-01-08T05:52:24.790Z,1.66
2023-01-08T05:54:51.149Z,1.69
2023-01-08T05:57:17.711Z,1.66
2023-01-08T05:59:44.057Z,1.66
2023-01-08T06:02:10.567Z,1.72
2023-01-08T06:04:37.178Z,1.77
2023-01-08T06:07:03.694Z,1.76
2023-01-08T06:09:30.191Z,1.81
2023-01-08T06:11:56.476Z,1.86
2023-01-08T06:14:22.802Z,1.88
2023-01-08T06:16:49.135Z,2.00
2023-01-08T06:19:15.450Z,2.08
2023-01-08T06:21:41.840Z,2.12
2023-01-08T06:24:08.406Z,1.99
2023-01-08T06:26:34.764Z,2.02
2023-01-08T06:29:01.329Z,2.14
2023-01-08T06:31:27.734Z,2.28
2023-01-08T06:33:54.371Z,2.31
2023-01-08T06:36:20.918Z,2.33
2023-01-08T06:38:47.432Z,2.38
2023-01-08T06:41:14.056Z,2.36
2023-01-08T06:43:40.915Z,2.13
2023-01-08T06:46:09.198Z,1.97
2023-01-08T06:48:36.427Z,1.94
2023-01-08T06:51:03.923Z,2.01
2023-01-08T06:53:30.888Z,2.10
2023-01-08T06:55:57.347Z,2.20
2023-01-08T06:58:24.486Z,2.27
2023-01-08T07:00:51.159Z,2.30
2023-01-08T07:03:17.642Z,2.44
2023-01-08T07:05:44.152Z,2.72
2023-01-08T07:08:13.724Z,2.86
2023-01-08T07:10:40.284Z,3.02
2023-01-08T07:13:06.668Z,3.06
2023-01-08T07:15:32.968Z,3.14
2023-01-08T07:17:59.273Z,3.18
2023-01-08T07:20:25.614Z,3.27
2023-01-08T07:22:52.066Z,3.34
2023-01-08T07:25:18.637Z,3.60
2023-01-08T07:27:45.255Z,3.62
2023-01-08T07:30:28.196Z,3.64
2023-01-08T07:33:02.006Z,3.70
2023-01-08T07:35:29.183Z,3.74
2023-01-08T07:37:56.601Z,3.75
2023-01-08T07:40:23.148Z,3.80
2023-01-08T07:43:03.949Z,3.81
2023-01-08T07:45:31.445Z,3.82
2023-01-08T07:47:59.256Z,3.86
2023-01-08T07:50:26.534Z,3.90
2023-01-08T07:52:53.133Z,3.91
2023-01-08T07:55:19.471Z,3.99
2023-01-08T07:57:45.840Z,4.04
2023-01-08T08:00:12.629Z,4.04
2023-01-08T08:02:39.092Z,4.11
2023-01-08T08:05:05.747Z,4.16
2023-01-08T08:07:32.291Z,4.25
2023-01-08T08:09:59.295Z,4.36
2023-01-08T08:12:25.695Z,4.36
2023-01-08T08:14:52.169Z,4.33
2023-01-08T08:17:18.532Z,4.25
2023-01-08T08:19:45.084Z,4.22
2023-01-08T08:22:13.272Z,4.09
2023-01-08T08:24:39.711Z,4.00
2023-01-08T08:27:06.110Z,4.03
2023-01-08T08:29:32.739Z,4.06
2023-01-08T08:31:59.417Z,4.01
2023-01-08T08:34:25.826Z,3.98
2023-01-08T08:36:52.505Z,4.00
2023-01-08T08:39:18.879Z,3.99
2023-01-08T08:41:45.347Z,3.93
2023-01-08T08:44:11.624Z,3.84
2023-01-08T08:46:38.159Z,3.87
2023-01-08T08:49:04.526Z,3.87
2023-01-08T08:51:30.892Z,3.87
2023-01-08T08:53:57.227Z,3.81
2023-01-08T08:56:23.489Z,3.78
2023-01-08T08:58:50.027Z,3.72
2023-01-08T09:01:16.557Z,3.73
2023-01-08T09:03:43.069Z,3.78
2023-01-08T09:06:14.273Z,3.82
2023-01-08T09:08:40.936Z,3.87
2023-01-08T09:11:07.359Z,3.86
2023-01-08T09:13:33.787Z,3.90
2023-01-08T09:16:00.699Z,3.98
2023-01-08T09:18:27.288Z,4.03
2023-01-08T09:20:53.658Z,3.94
2023-01-08T09:23:22.068Z,3.98
2023-01-08T09:25:48.385Z,3.95
2023-01-08T09:28:14.754Z,3.99
2023-01-08T09:30:41.269Z,3.93
2023-01-08T09:33:07.625Z,3.92
2023-01-08T09:35:34.342Z,4.02
2023-01-08T09:38:00.919Z,4.08
2023-01-08T09:40:50.616Z,4.21
2023-01-08T09:43:20.692Z,4.14
2023-01-08T09:45:51.520Z,4.21
2023-01-08T09:48:20.164Z,4.30
2023-01-08T09:50:47.996Z,4.37
2023-01-08T09:53:17.743Z,4.45
2023-01-08T09:55:47.976Z,4.50
2023-01-08T09:58:30.169Z,4.48
2023-01-08T10:00:56.988Z,4.42
2023-01-08T10:03:30.144Z,4.45
2023-01-08T10:05:56.607Z,4.36
2023-01-08T10:08:23.263Z,4.35
2023-01-08T10:10:49.698Z,4.34
2023-01-08T10:13:16.443Z,4.37
2023-01-08T10:15:42.793Z,4.38
2023-01-08T10:18:14.267Z,4.40
2023-01-08T10:20:40.789Z,4.45
2023-01-08T10:23:15.943Z,4.48
2023-01-08T10:25:57.615Z,4.55
2023-01-08T10:28:25.796Z,4.66
2023-01-08T10:30:54.194Z,4.68
2023-01-08T10:33:30.712Z,4.63
2023-01-08T10:36:04.918Z,4.62
2023-01-08T10:38:38.031Z,4.74
2023-01-08T10:41:12.605Z,4.73
2023-01-08T10:43:51.995Z,4.88
2023-01-08T10:46:28.228Z,4.89
2023-01-08T10:48:56.941Z,5.04
2023-01-08T10:51:25.910Z,5.15
2023-01-08T10:53:54.019Z,5.22
2023-01-08T10:56:22.038Z,5.39
2023-01-08T10:58:49.186Z,5.49
2023-01-08T11:01:25.098Z,5.48
2023-01-08T11:03:59.860Z,5.47
2023-01-08T11:06:29.262Z,5.57
2023-01-08T11:08:59.714Z,5.62
2023-01-08T11:11:36.894Z,5.76
2023-01-08T11:14:07.020Z,5.69
2023-01-08T11:16:36.676Z,5.84
2023-01-08T11:19:04.474Z,5.85
2023-01-08T11:21:31.852Z,5.98
2023-01-08T11:24:15.021Z,6.04
2023-01-08T11:26:46.776Z,6.23
2023-01-08T11:29:18.077Z,6.29
2023-01-08T11:31:59.788Z,6.44
2023-01-08T11:34:48.205Z,6.50
2023-01-08T11:37:24.796Z,6.56
2023-01-08T11:39:55.594Z,6.58
2023-01-08T11:42:21.891Z,6.62
2023-01-08T11:45:12.273Z,6.54
2023-01-08T11:47:55.461Z,6.62
2023-01-08T11:50:28.447Z,6.68
2023-01-08T11:53:05.244Z,6.77
2023-01-08T11:55:57.415Z,6.83
2023-01-08T11:58:32.834Z,6.96
2023-01-08T12:01:15.918Z,6.94
2023-01-08T12:03:46.949Z,7.02
2023-01-08T12:06:39.305Z,7.12
2023-01-08T12:09:30.818Z,7.26
2023-01-08T12:12:16.814Z,7.18
2023-01-08T12:15:03.053Z,7.04
2023-01-08T12:18:04.376Z,7.07
2023-01-08T12:20:45.815Z,7.04
2023-01-08T12:23:21.544Z,7.09
2023-01-08T12:26:23.725Z,7.19
2023-01-08T12:29:09.390Z,7.23
2023-01-08T12:31:48.673Z,7.24
2023-01-08T12:34:44.649Z,7.24
2023-01-08T12:37:52.099Z,7.10
2023-01-08T12:40:31.056Z,7.09
2023-01-08T12:43:01.433Z,7.11
2023-01-08T12:45:33.107Z,7.06
2023-01-08T12:48:18.457Z,7.09
2023-01-08T12:51:06.760Z,7.15
2023-01-08T12:53:48.049Z,7.11
2023-01-08T12:56:20.101Z,7.14
2023-01-08T12:58:59.274Z,7.18
2023-01-08T13:01:40.511Z,7.21
2023-01-08T13:04:09.940Z,7.20
2023-01-08T13:06:37.028Z,7.27
2023-01-08T13:09:04.483Z,7.38
2023-01-08T13:11:34.553Z,7.40
2023-01-08T13:14:12.548Z,7.45
2023-01-08T13:16:41.143Z,7.52
2023-01-08T13:19:25.227Z,7.49
2023-01-08T13:21:54.813Z,7.49
2023-01-08T13:24:29.227Z,7.41
2023-01-08T13:26:57.131Z,7.39
2023-01-08T13:29:39.221Z,7.30
2023-01-08T13:32:23.247Z,7.29
2023-01-08T13:35:12.428Z,7.27
2023-01-08T13:37:38.915Z,7.28
2023-01-08T13:40:25.674Z,7.25
2023-01-08T13:42:52.291Z,7.20
2023-01-08T13:45:18.778Z,7.21
2023-01-08T13:47:45.250Z,7.22
2023-01-08T13:50:19.411Z,7.23
2023-01-08T13:52:48.811Z,7.26
2023-01-08T13:55:21.030Z,7.34
2023-01-08T13:57:52.066Z,7.34
2023-01-08T14:00:24.734Z,7.52
2023-01-08T14:02:51.526Z,7.64
2023-01-08T14:05:26.224Z,7.88
2023-01-08T14:07:53.234Z,8.02
2023-01-08T14:10:20.727Z,8.23
2023-01-08T14:12:47.938Z,8.51
2023-01-08T14:15:23.245Z,8.77
2023-01-08T14:17:50.473Z,8.86
2023-01-08T14:20:24.570Z,8.75
2023-01-08T14:22:51.189Z,8.48
2023-01-08T14:25:19.781Z,8.45
2023-01-08T14:28:05.076Z,8.42
2023-01-08T14:30:32.836Z,8.38
2023-01-08T14:33:01.618Z,8.36
2023-01-08T14:35:32.581Z,8.37
2023-01-08T14:38:00.824Z,8.30
2023-01-08T14:40:41.198Z,8.28
2023-01-08T14:43:14.586Z,8.24
2023-01-08T14:45:47.609Z,8.22
2023-01-08T14:48:31.344Z,8.22
2023-01-08T14:51:07.320Z,8.20
2023-01-08T14:53:45.940Z,8.18
2023-01-08T14:56:19.689Z,8.09
2023-01-08T14:58:46.892Z,8.09
2023-01-08T15:01:20.957Z,8.02
2023-01-08T15:03:49.197Z,8.00
2023-01-08T15:06:27.391Z,7.94
2023-01-08T15:08:54.064Z,7.91
2023-01-08T15:11:30.166Z,7.92
2023-01-08T15:13:57.883Z,7.89
2023-01-08T15:16:31.439Z,7.87
2023-01-08T15:19:00.652Z,7.87
2023-01-08T15:21:27.542Z,7.80
2023-01-08T15:23:56.842Z,7.76
2023-01-08T15:26:24.411Z,7.71
2023-01-08T15:28:57.236Z,7.61
2023-01-08T15:31:48.445Z,7.51
2023-01-08T15:34:19.686Z,7.43
2023-01-08T15:36:47.646Z,7.35
2023-01-08T15:39:14.385Z,7.29
2023-01-08T15:41:41.027Z,7.32
2023-01-08T15:44:09.693Z,7.17
2023-01-08T15:46:36.554Z,7.05
2023-01-08T15:49:03.707Z,6.94
2023-01-08T15:51:34.035Z,6.91
2023-01-08T15:54:01.677Z,6.80
2023-01-08T15:56:28.520Z,6.71
2023-01-08T15:58:55.077Z,6.75
2023-01-08T16:01:21.867Z,6.71
2023-01-08T16:03:48.635Z,6.64
2023-01-08T16:06:15.286Z,6.63
2023-01-08T16:08:41.807Z,6.56
2023-01-08T16:11:08.373Z,6.51
2023-01-08T16:13:35.007Z,6.44
2023-01-08T16:16:08.307Z,6.45
2023-01-08T16:18:35.038Z,6.41
2023-01-08T16:21:02.167Z,6.42
2023-01-08T16:23:28.610Z,6.40
2023-01-08T16:25:55.248Z,6.36
2023-01-08T16:28:22.011Z,6.34
2023-01-08T16:30:48.363Z,6.32
2023-01-08T16:33:14.659Z,6.32
2023-01-08T16:35:40.978Z,6.32
2023-01-08T16:38:07.485Z,6.33
2023-01-08T16:40:33.967Z,6.26
2023-01-08T16:43:01.182Z,6.23
2023-01-08T16:45:27.914Z,6.23
2023-01-08T16:47:54.465Z,6.21
2023-01-08T16:50:20.804Z,6.17
2023-01-08T16:52:47.462Z,6.20
2023-01-08T16:55:13.796Z,6.14
2023-01-08T16:57:40.397Z,6.09
2023-01-08T17:00:07.249Z,6.09
2023-01-08T17:02:33.701Z,6.03
2023-01-08T17:05:00.510Z,6.01
2023-01-08T17:07:26.985Z,5.97
2023-01-08T17:09:53.428Z,5.97
2023-01-08T17:12:20.165Z,5.91
2023-01-08T17:14:46.621Z,5.84
2023-01-08T17:17:13.210Z,5.79
2023-01-08T17:19:39.613Z,5.73
2023-01-08T17:22:05.952Z,5.69
2023-01-08T17:24:32.379Z,5.67
2023-01-08T17:26:58.931Z,5.65
2023-01-08T17:29:25.520Z,5.65
2023-01-08T17:31:51.857Z,5.64
2023-01-08T17:34:18.216Z,5.60
2023-01-08T17:36:44.588Z,5.55
2023-01-08T17:39:11.990Z,5.51
2023-01-08T17:41:38.891Z,5.51
2023-01-08T17:44:07.133Z,5.49
2023-01-08T17:46:38.882Z,5.45
2023-01-08T17:49:05.694Z,5.44
2023-01-08T17:51:32.243Z,5.44
2023-01-08T17:53:59.242Z,5.39
2023-01-08T17:56:26.207Z,5.38
2023-01-08T17:58:53.341Z,5.39
2023-01-08T18:01:20.182Z,5.41
2023-01-08T18:03:47.118Z,5.44
2023-01-08T18:06:14.007Z,5.44
2023-01-08T18:08:40.982Z,5.41
2023-01-08T18:11:09.272Z,5.37
2023-01-08T18:13:36.262Z,5.32
2023-01-08T18:16:08.119Z,5.30
2023-01-08T18:18:35.826Z,5.28
2023-01-08T18:21:02.616Z,5.27
2023-01-08T18:23:29.391Z,5.25
2023-01-08T18:25:55.945Z,5.25
2023-01-08T18:28:22.341Z,5.27
2023-01-08T18:30:48.964Z,5.26
2023-01-08T18:33:16.052Z,5.24
2023-01-08T18:35:42.498Z,5.26
2023-01-08T18:38:08.952Z,5.25
2023-01-08T18:40:35.984Z,5.25
2023-01-08T18:43:02.579Z,5.23
2023-01-08T18:45:29.004Z,5.22
2023-01-08T18:47:55.556Z,5.23
2023-01-08T18:50:22.068Z,5.23
2023-01-08T18:52:48.538Z,5.24
2023-01-08T18:55:14.932Z,5.28
2023-01-08T18:57:41.327Z,5.31
2023-01-08T19:00:08.829Z,5.37
2023-01-08T19:02:35.393Z,5.41
2023-01-08T19:05:01.853Z,5.43
2023-01-08T19:07:28.321Z,5.46
2023-01-08T19:09:54.842Z,5.47
2023-01-08T19:12:21.492Z,5.49
2023-01-08T19:14:47.856Z,5.54
2023-01-08T19:17:14.336Z,5.57
2023-01-08T19:19:40.865Z,5.62
2023-01-08T19:22:07.435Z,5.62
2023-01-08T19:24:34.908Z,5.65
2023-01-08T19:27:01.505Z,5.68
2023-01-08T19:29:28.731Z,5.69
2023-01-08T19:31:55.626Z,5.70
2023-01-08T19:34:22.177Z,5.71
2023-01-08T19:36:48.510Z,5.70
2023-01-08T19:39:15.073Z,5.69
2023-01-08T19:41:41.808Z,5.68
2023-01-08T19:44:08.682Z,5.68
2023-01-08T19:46:36.977Z,5.67
2023-01-08T19:49:04.714Z,5.66
2023-01-08T19:51:32.888Z,5.64
2023-01-08T19:54:00.042Z,5.62
2023-01-08T19:56:26.922Z,5.61
2023-01-08T19:59:03.528Z,5.61
2023-01-08T20:01:30.874Z,5.60
2023-01-08T20:03:57.326Z,5.62
2023-01-08T20:06:25.845Z,5.63
2023-01-08T20:08:55.988Z,5.59
2023-01-08T20:11:23.833Z,5.59
2023-01-08T20:13:50.663Z,5.56
2023-01-08T20:16:20.873Z,5.59
2023-01-08T20:18:47.763Z,5.54
2023-01-08T20:21:17.051Z,5.53
2023-01-08T20:23:44.996Z,5.59
2023-01-08T20:26:14.207Z,5.58
2023-01-08T20:28:42.580Z,5.55
2023-01-08T20:31:12.174Z,5.53
2023-01-08T20:33:39.071Z,5.53
2023-01-08T20:36:10.359Z,5.49
2023-01-08T20:38:37.007Z,5.51
2023-01-08T20:41:04.857Z,5.53
2023-01-08T20:43:31.567Z,5.50
2023-01-08T20:45:58.141Z,5.48
2023-01-08T20:48:24.658Z,5.46
2023-01-08T20:50:59.001Z,5.45
2023-01-08T20:53:26.430Z,5.41
2023-01-08T20:55:53.588Z,5.37
2023-01-08T20:58:20.324Z,5.34
2023-01-08T21:00:46.982Z,5.34
2023-01-08T21:03:14.279Z,5.36
2023-01-08T21:05:40.613Z,5.39
2023-01-08T21:08:07.675Z,5.40
2023-01-08T21:10:35.071Z,5.38
2023-01-08T21:13:01.639Z,5.42
2023-01-08T21:15:28.116Z,5.41
2023-01-08T21:17:54.563Z,5.47
2023-01-08T21:20:20.959Z,5.46
2023-01-08T21:22:47.326Z,5.47
2023-01-08T21:25:14.028Z,5.48
2023-01-08T21:27:40.387Z,5.48
2023-01-08T21:30:07.507Z,5.49
2023-01-08T21:32:35.786Z,5.53
2023-01-08T21:35:02.165Z,5.55
2023-01-08T21:37:28.663Z,5.57
2023-01-08T21:39:55.125Z,5.60
2023-01-08T21:42:21.663Z,5.62
2023-01-08T21:44:48.092Z,5.62
2023-01-08T21:47:17.137Z,5.61
2023-01-08T21:49:44.757Z,5.67
2023-01-08T21:52:11.104Z,5.69
2023-01-08T21:54:37.540Z,5.68
2023-01-08T21:57:04.032Z,5.68
2023-01-08T21:59:30.594Z,5.69
2023-01-08T22:01:57.196Z,5.73
2023-01-08T22:04:23.815Z,5.80
2023-01-08T22:06:52.236Z,5.85
2023-01-08T22:09:18.835Z,5.96
2023-01-08T22:11:45.795Z,6.04
2023-01-08T22:14:12.835Z,5.98
2023-01-08T22:16:39.263Z,5.97
2023-01-08T22:19:05.680Z,5.93
2023-01-08T22:21:32.096Z,5.90
2023-01-08T22:23:58.647Z,5.91
2023-01-08T22:26:25.315Z,5.86
2023-01-08T22:28:51.730Z,5.90
2023-01-08T22:31:18.220Z,5.88
2023-01-08T22:33:44.610Z,5.89
2023-01-08T22:36:13.547Z,5.88
2023-01-08T22:38:40.497Z,5.89
2023-01-08T22:41:19.015Z,5.94
2023-01-08T22:43:45.909Z,5.97
2023-01-08T22:46:14.741Z,5.97
2023-01-08T22:48:42.504Z,5.96
2023-01-08T22:51:10.184Z,5.97
2023-01-08T22:53:37.422Z,5.97
2023-01-08T22:56:07.023Z,5.98
2023-01-08T22:58:33.452Z,5.96
2023-01-08T23:01:00.226Z,5.98
2023-01-08T23:03:29.216Z,5.96
2023-01-08T23:06:02.715Z,5.95
2023-01-08T23:08:29.233Z,5.93
2023-01-08T23:10:55.875Z,5.94
2023-01-08T23:13:22.399Z,5.95
2023-01-08T23:15:49.119Z,5.94
2023-01-08T23:18:15.783Z,5.94
2023-01-08T23:20:42.534Z,5.95
2023-01-08T23:23:09.178Z,6.00
2023-01-08T23:25:35.708Z,6.01
2023-01-08T23:28:02.542Z,5.98
2023-01-08T23:30:29.119Z,5.98
2023-01-08T23:32:55.818Z,5.95
2023-01-08T23:35:22.259Z,5.98
2023-01-08T23:37:48.790Z,6.00
2023-01-08T23:40:15.532Z,5.98
2023-01-08T23:42:41.961Z,6.06
2023-01-08T23:45:11.177Z,6.06
2023-01-08T23:47:37.822Z,6.07
2023-01-08T23:50:04.644Z,6.06
2023-01-08T23:52:31.243Z,6.06
2023-01-08T23:55:00.182Z,6.03
2023-01-08T23:57:26.915Z,5.96
2023-01-08T23:59:56.332Z,5.94
